createdAt,value
2022-12-13T00:02:10.090Z,97955.09
2022-12-13T00:07:12.845Z,97946.25
2022-12-13T00:12:16.145Z,97948.03
2022-12-13T00:17:20.643Z,97949.91
2022-12-13T00:22:23.350Z,97935.84
2022-12-13T00:27:26.121Z,97940.16
2022-12-13T00:32:30.540Z,97941.25
2022-12-13T00:37:33.241Z,97948.03
2022-12-13T00:42:36.191Z,97938.66
2022-12-13T00:47:40.428Z,97939.97
2022-12-13T00:52:43.241Z,97942.81
2022-12-13T00:57:46.018Z,97934.81
2022-12-13T01:02:50.157Z,97921.53
2022-12-13T01:07:52.902Z,97917.38
2022-12-13T01:12:55.714Z,97920.88
2022-12-13T01:17:59.849Z,97917.94
2022-12-13T01:23:02.874Z,97919.56
2022-12-13T01:28:06.125Z,97922.56
2022-12-13T01:33:14.042Z,97912.78
2022-12-13T01:38:17.426Z,97908.06
2022-12-13T01:43:20.319Z,97917.06
2022-12-13T01:48:29.866Z,97914.22
2022-12-13T01:53:36.512Z,97916.81
2022-12-13T01:58:40.061Z,97916.25
2022-12-13T02:03:44.395Z,97921.38
2022-12-13T02:08:47.765Z,97910.72
2022-12-13T02:13:50.532Z,97909.00
2022-12-13T02:19:14.707Z,97912.81
2022-12-13T02:24:46.939Z,97905.22
2022-12-13T02:30:22.010Z,97907.41
2022-12-13T02:35:29.540Z,97900.53
2022-12-13T02:40:35.798Z,97896.97
2022-12-13T02:45:45.485Z,97891.88
2022-12-13T02:50:52.040Z,97874.66
2022-12-13T02:55:54.811Z,97875.91
2022-12-13T03:01:30.241Z,97879.94
2022-12-13T03:06:40.724Z,97889.88
2022-12-13T03:12:16.890Z,97886.97
2022-12-13T03:17:23.218Z,97882.03
2022-12-13T03:22:26.138Z,97882.19
2022-12-13T03:27:29.103Z,97889.63
2022-12-13T03:32:33.402Z,97890.53
2022-12-13T03:37:36.277Z,97890.41
2022-12-13T03:42:39.342Z,97881.03
2022-12-13T03:47:43.516Z,97869.84
2022-12-13T03:52:47.570Z,97875.00
2022-12-13T03:57:50.365Z,97883.88
2022-12-13T04:02:54.666Z,97878.06
2022-12-13T04:08:00.654Z,97880.38
2022-12-13T04:13:21.541Z,97875.53
2022-12-13T04:18:25.700Z,97885.94
2022-12-13T04:23:28.601Z,97888.31
2022-12-13T04:28:32.087Z,97875.22
2022-12-13T04:33:36.263Z,97875.06
2022-12-13T04:38:39.005Z,97885.28
2022-12-13T04:43:41.752Z,97886.53
2022-12-13T04:48:45.825Z,97886.88
2022-12-13T04:53:48.674Z,97896.41
2022-12-13T04:58:51.515Z,97895.50
2022-12-13T05:03:55.588Z,97896.34
2022-12-13T05:09:00.795Z,97886.59
2022-12-13T05:14:04.128Z,97886.72
2022-12-13T05:19:08.484Z,97884.72
2022-12-13T05:24:11.396Z,97883.63
2022-12-13T05:29:14.202Z,97882.03
2022-12-13T05:34:18.635Z,97864.88
2022-12-13T05:39:28.383Z,97854.16
2022-12-13T05:44:32.877Z,97862.88
2022-12-13T05:49:37.048Z,97858.63
2022-12-13T05:54:42.989Z,97857.06
2022-12-13T05:59:45.841Z,97863.19
2022-12-13T06:04:50.917Z,97871.13
2022-12-13T06:09:53.704Z,97867.75
2022-12-13T06:15:21.958Z,97866.84
2022-12-13T06:20:27.913Z,97861.94
2022-12-13T06:25:32.110Z,97851.09
2022-12-13T06:30:35.086Z,97847.78
2022-12-13T06:35:48.278Z,97853.31
2022-12-13T06:40:51.177Z,97850.00
2022-12-13T06:45:53.938Z,97853.41
2022-12-13T06:51:01.678Z,97859.31
2022-12-13T06:56:05.906Z,97856.13
2022-12-13T07:01:14.807Z,97859.78
2022-12-13T07:06:22.077Z,97858.13
2022-12-13T07:11:28.974Z,97861.03
2022-12-13T07:16:31.819Z,97867.41
2022-12-13T07:21:36.456Z,97859.50
2022-12-13T07:26:39.570Z,97864.66
2022-12-13T07:31:44.455Z,97867.69
2022-12-13T07:36:50.334Z,97869.16
2022-12-13T07:41:55.723Z,97873.00
2022-12-13T07:46:58.636Z,97870.28
2022-12-13T07:52:04.447Z,97873.41
2022-12-13T07:57:07.721Z,97873.84
2022-12-13T08:02:14.305Z,97868.59
2022-12-13T08:07:18.900Z,97872.31
2022-12-13T08:12:22.665Z,97872.94
2022-12-13T08:17:26.765Z,97861.63
2022-12-13T08:22:36.077Z,97857.97
2022-12-13T08:27:39.312Z,97865.94
2022-12-13T08:32:46.502Z,97862.31
2022-12-13T08:37:54.439Z,97865.41
2022-12-13T08:42:59.465Z,97870.47
2022-12-13T08:48:03.598Z,97864.34
2022-12-13T08:53:07.697Z,97874.72
2022-12-13T08:58:11.790Z,97871.69
2022-12-13T09:03:14.720Z,97866.75
2022-12-13T09:08:24.823Z,97866.69
2022-12-13T09:13:31.885Z,97876.44
2022-12-13T09:18:36.482Z,97877.88
2022-12-13T09:23:45.842Z,97883.75
2022-12-13T09:28:49.314Z,97889.41
2022-12-13T09:33:52.237Z,97886.44
2022-12-13T09:38:58.992Z,97888.88
2022-12-13T09:44:06.187Z,97886.47
2022-12-13T09:49:34.931Z,97883.47
2022-12-13T09:54:51.021Z,97887.00
2022-12-13T10:00:01.007Z,97895.63
2022-12-13T10:05:22.826Z,97899.06
2022-12-13T10:10:29.090Z,97888.06
2022-12-13T10:15:37.132Z,97874.69
2022-12-13T10:20:40.102Z,97871.50
2022-12-13T10:25:51.575Z,97869.88
2022-12-13T10:30:56.551Z,97865.06
2022-12-13T10:36:09.108Z,97847.31
2022-12-13T10:41:38.489Z,97834.97
2022-12-13T10:46:51.898Z,97845.75
2022-12-13T10:52:03.835Z,97828.53
2022-12-13T10:57:12.701Z,97835.69
2022-12-13T11:02:37.534Z,97829.31
2022-12-13T11:07:40.479Z,97837.91
2022-12-13T11:12:44.930Z,97826.09
2022-12-13T11:17:51.276Z,97808.41
2022-12-13T11:23:02.868Z,97796.66
2022-12-13T11:28:26.555Z,97799.84
2022-12-13T11:33:48.287Z,97799.22
2022-12-13T11:39:05.138Z,97796.63
2022-12-13T11:44:17.576Z,97792.00
2022-12-13T11:49:34.555Z,97780.19
2022-12-13T11:54:52.047Z,97778.28
2022-12-13T12:00:15.423Z,97744.56
2022-12-13T12:05:42.498Z,97756.13
2022-12-13T12:10:50.385Z,97753.19
2022-12-13T12:16:07.884Z,97746.09
2022-12-13T12:21:37.287Z,97742.53
2022-12-13T12:27:00.706Z,97739.81
2022-12-13T12:32:11.957Z,97732.91
2022-12-13T12:37:25.958Z,97733.72
2022-12-13T12:43:14.467Z,97734.75
2022-12-13T12:49:00.618Z,97717.03
2022-12-13T12:54:14.081Z,97721.31
2022-12-13T12:59:27.893Z,97727.38
2022-12-13T13:04:39.119Z,97723.69
2022-12-13T13:09:43.484Z,97721.00
2022-12-13T13:14:46.695Z,97715.81
2022-12-13T13:20:07.832Z,97710.41
2022-12-13T13:25:25.810Z,97695.28
2022-12-13T13:30:30.744Z,97705.13
2022-12-13T13:35:54.897Z,97708.34
2022-12-13T13:40:57.955Z,97717.03
2022-12-13T13:46:11.086Z,97709.47
2022-12-13T13:51:49.338Z,97707.88
2022-12-13T13:58:08.243Z,97716.56
2022-12-13T14:03:54.827Z,97713.34
2022-12-13T14:09:15.930Z,97699.81
2022-12-13T14:15:11.576Z,97710.28
2022-12-13T14:20:42.222Z,97705.53
2022-12-13T14:26:05.185Z,97710.59
2022-12-13T14:31:21.602Z,97702.91
2022-12-13T14:36:29.983Z,97707.34
2022-12-13T14:41:45.942Z,97708.91
2022-12-13T14:46:51.308Z,97717.97
2022-12-13T14:52:01.268Z,97709.25
2022-12-13T14:57:06.346Z,97705.88
2022-12-13T15:02:17.090Z,97693.09
2022-12-13T15:07:38.072Z,97693.22
2022-12-13T15:12:43.806Z,97683.50
2022-12-13T15:17:46.605Z,97686.88
2022-12-13T15:23:06.951Z,97684.69
2022-12-13T15:28:21.217Z,97684.94
2022-12-13T15:33:34.357Z,97681.53
2022-12-13T15:38:48.733Z,97668.88
2022-12-13T15:43:55.059Z,97669.84
2022-12-13T15:48:59.935Z,97668.44
2022-12-13T15:54:05.862Z,97665.19
2022-12-13T15:59:26.026Z,97662.09
2022-12-13T16:04:31.197Z,97663.84
2022-12-13T16:09:38.166Z,97653.63
2022-12-13T16:14:49.324Z,97655.75
2022-12-13T16:19:56.467Z,97642.50
2022-12-13T16:25:00.412Z,97638.06
2022-12-13T16:30:13.169Z,97636.44
2022-12-13T16:35:16.477Z,97629.53
2022-12-13T16:40:26.209Z,97616.78
2022-12-13T16:45:41.691Z,97608.97
2022-12-13T16:50:48.050Z,97607.28
2022-12-13T16:56:00.256Z,97600.38
2022-12-13T17:01:09.792Z,97608.34
2022-12-13T17:06:15.514Z,97611.09
2022-12-13T17:11:18.695Z,97602.56
2022-12-13T17:16:22.966Z,97596.38
2022-12-13T17:21:27.340Z,97597.84
2022-12-13T17:26:30.490Z,97595.31
2022-12-13T17:31:36.019Z,97586.63
2022-12-13T17:36:39.142Z,97585.88
2022-12-13T17:41:41.859Z,97592.34
2022-12-13T17:46:47.576Z,97602.06
2022-12-13T17:51:58.799Z,97593.59
2022-12-13T17:57:01.517Z,97589.94
2022-12-13T18:02:05.702Z,97591.63
2022-12-13T18:07:09.101Z,97579.53
2022-12-13T18:12:12.653Z,97572.50
2022-12-13T18:17:18.990Z,97553.41
2022-12-13T18:22:21.937Z,97558.69
2022-12-13T18:27:24.854Z,97555.19
2022-12-13T18:32:29.179Z,97561.16
2022-12-13T18:37:37.076Z,97570.59
2022-12-13T18:42:39.902Z,97565.41
2022-12-13T18:47:46.970Z,97569.69
2022-12-13T18:52:49.775Z,97569.31
2022-12-13T18:57:52.649Z,97568.41
2022-12-13T19:02:57.001Z,97562.41
2022-12-13T19:07:59.711Z,97548.63
2022-12-13T19:13:02.477Z,97551.22
2022-12-13T19:18:07.067Z,97546.94
2022-12-13T19:23:10.006Z,97542.59
2022-12-13T19:28:13.946Z,97527.16
2022-12-13T19:33:18.412Z,97525.47
2022-12-13T19:38:21.318Z,97518.63
2022-12-13T19:43:24.566Z,97521.03
2022-12-13T19:48:29.210Z,97519.28
2022-12-13T19:53:33.459Z,97513.41
2022-12-13T19:58:36.454Z,97514.34
2022-12-13T20:03:44.159Z,97503.00
2022-12-13T20:08:48.174Z,97496.91
2022-12-13T20:13:54.294Z,97490.69
2022-12-13T20:18:59.846Z,97496.91
2022-12-13T20:24:02.979Z,97486.22
2022-12-13T20:29:06.488Z,97491.75
2022-12-13T20:34:15.129Z,97477.81
2022-12-13T20:39:17.913Z,97481.28
2022-12-13T20:44:20.904Z,97481.53
2022-12-13T20:49:25.117Z,97470.88
2022-12-13T20:54:27.911Z,97465.28
2022-12-13T20:59:30.636Z,97461.16
2022-12-13T21:04:34.806Z,97454.03
2022-12-13T21:09:40.829Z,97452.28
2022-12-13T21:14:45.339Z,97454.09
2022-12-13T21:19:52.378Z,97446.22
2022-12-13T21:24:55.418Z,97447.84
2022-12-13T21:29:58.164Z,97424.69
2022-12-13T21:35:02.294Z,97406.41
2022-12-13T21:40:06.637Z,97388.38
2022-12-13T21:45:09.873Z,97374.75
2022-12-13T21:50:14.063Z,97373.75
2022-12-13T21:55:38.369Z,97355.63
2022-12-13T22:00:39.885Z,97351.13
2022-12-13T22:05:44.569Z,97341.59
2022-12-13T22:11:02.084Z,97326.06
2022-12-13T22:16:06.041Z,97319.94
2022-12-13T22:21:10.175Z,97311.16
2022-12-13T22:26:12.926Z,97312.44
2022-12-13T22:31:16.098Z,97311.50
2022-12-13T22:36:20.196Z,97308.66
2022-12-13T22:41:24.233Z,97306.22
2022-12-13T22:46:28.793Z,97311.25
2022-12-13T22:51:33.028Z,97295.63
2022-12-13T22:56:36.210Z,97291.44
2022-12-13T23:01:40.556Z,97302.00
2022-12-13T23:06:44.736Z,97302.69
2022-12-13T23:12:04.922Z,97298.69
2022-12-13T23:17:08.078Z,97295.94
2022-12-13T23:22:13.833Z,97287.38
2022-12-13T23:27:16.651Z,97279.34
2022-12-13T23:32:20.467Z,97275.22
2022-12-13T23:37:24.614Z,97265.47
2022-12-13T23:42:30.005Z,97256.13
2022-12-13T23:47:32.785Z,97246.47
2022-12-13T23:52:37.673Z,97262.03
2022-12-13T23:57:40.372Z,97256.84
